Кикинда, Румунија

21. јануар 2019, 19:47 EET (GMT +0200)
Banat | | Change Station

Надм.вис. 266 ft 45.83 °N, 20.47 °E | Updated 12 minutes ago

Делимично облачно
Делимично облачно
30.236 °F
Субјективни осећај 30 °F
С
1.242742
Ветар Променљив Ветар из СЗ
Gusts 2.7 mph

Данас
Макс. -- | Мин. -- °F
--% Вероватноћа за падавине
Јуче
Макс. -- | Мин. -- °F
Precip. -- инч
Притисак 30.12 инч
Видљивост 3.1 миља
Облаци Мало облачно 1800 ft
Субјективни осећај 30 °F
Тачка росе 24 °F
Влажност ваздуха 84%
Киша 0.00 инч
Висина снега Није доступно.
8:10 AM 5:26 PM
Пун, 100% visible
METAR LRTR 211730Z 04003KT 5000 BR SCT018 M01/M01 Q1020 NOSIG
Притисак 30.12 инч
Видљивост 3.1 миља
Облаци Мало облачно 1800 ft
Субјективни осећај 30 °F
Тачка росе 24 °F
Влажност ваздуха 84%
Киша 0.00 инч
Висина снега Није доступно.
8:10 AM 5:26 PM
Пун, 100% visible
METAR LRTR 211730Z 04003KT 5000 BR SCT018 M01/M01 Q1020 NOSIG

Get Severe Weather Alerts

Thanks for signing up!

Be on the lookout for a verification email in your inbox.

You'll start receiving the daily forecast at 6 AM.

×

10-Day Weather Forecast

×

Almanac

Астрономија

Jan. 21, 2019 Излазак Залазак
Тренутно време
Цивилни сумрак
Наутички сумрак
Астрономски сумрак
Месец
Трајање видљиве светлости
Обданица
Tomorrow will be .
, % of the Moon is Illuminated

Данашњи екстреми

Највише Најниже

Community

Category 6

Welcome to Category 6. This is the collective home for Weather Underground's featured writeups by Dr. Jeff Masters (right), Bob Henson (left), Chris Burt, and other regular contributors.

Nearby

Квалитет ваздуха (AQ)

  Квалитет ваздуха (AQ) Индекс AQ Загађење
Not available.

Висина снега

станица Висина снега Висина

Земљотрес

Место Удаљеност Магнитуда Време и датум
Минимална магнитуда која се објављује је 2.5

Темп. воде у приобаљу

Место Температура

Stations

Оближње метео-станице

Локација станице Темп. Субјективни осећај Тачка росе Влажност ваздуха Ветар Precip. Надм.вис. Ажурирано Тип